TimeEST,TemperatureF,Dew PointF,Humidity,Sea Level PressureIn,VisibilityMPH,Wind Direction,Wind SpeedMPH,Gust SpeedMPH,PrecipitationIn,Events,Conditions,WindDirDegrees,DateUTC
12:15 AM,17.6,-2.2,42,30.08,10.0,West,19.6,25.3,N/A,,Clear,280,2013-11-25 05:15:00
12:35 AM,17.6,-0.4,45,30.08,10.0,West,10.4,21.9,N/A,,Clear,280,2013-11-25 05:35:00
12:55 AM,17.6,-0.4,45,30.09,10.0,West,5.8,25.3,N/A,,Clear,270,2013-11-25 05:55:00
1:15 AM,17.6,-0.4,45,30.11,10.0,West,12.7,21.9,N/A,,Clear,280,2013-11-25 06:15:00
1:35 AM,17.6,-0.4,45,30.09,10.0,West,13.8,24.2,N/A,,Clear,280,2013-11-25 06:35:00
1:55 AM,17.6,-2.2,42,30.11,10.0,West,13.8,27.6,N/A,,Clear,260,2013-11-25 06:55:00
2:15 AM,15.8,-0.4,49,30.12,10.0,West,11.5,-,N/A,,Clear,280,2013-11-25 07:15:00
2:35 AM,15.8,-2.2,45,30.11,10.0,West,17.3,23.0,N/A,,Clear,270,2013-11-25 07:35:00
2:55 AM,15.8,-2.2,45,30.10,10.0,West,23.0,34.5,N/A,,Clear,280,2013-11-25 07:55:00
3:15 AM,15.8,-0.4,49,30.11,10.0,West,24.2,29.9,N/A,,Clear,280,2013-11-25 08:15:00
3:35 AM,15.8,-2.2,45,30.13,10.0,WNW,17.3,24.2,N/A,,Clear,300,2013-11-25 08:35:00
3:55 AM,17.6,-0.4,45,30.14,10.0,West,10.4,21.9,N/A,,Clear,260,2013-11-25 08:55:00
4:15 AM,17.6,-2.2,42,30.15,10.0,West,16.1,25.3,N/A,,Clear,280,2013-11-25 09:15:00
4:35 AM,17.6,-2.2,42,30.16,10.0,West,17.3,32.2,N/A,,Clear,280,2013-11-25 09:35:00
4:55 AM,17.6,-0.4,45,30.17,10.0,West,10.4,21.9,N/A,,Clear,280,2013-11-25 09:55:00
5:15 AM,17.6,-4.0,38,30.18,10.0,WSW,6.9,20.7,N/A,,Clear,250,2013-11-25 10:15:00
5:35 AM,17.6,-0.4,45,30.19,10.0,West,11.5,17.3,N/A,,Clear,260,2013-11-25 10:35:00
5:55 AM,17.6,-2.2,42,30.20,10.0,West,11.5,18.4,N/A,,Clear,260,2013-11-25 10:55:00
6:15 AM,17.6,-0.4,45,30.20,10.0,West,15.0,-,N/A,,Clear,270,2013-11-25 11:15:00
6:35 AM,17.6,-2.2,42,30.22,10.0,West,13.8,19.6,N/A,,Clear,280,2013-11-25 11:35:00
6:55 AM,17.6,-2.2,42,30.23,10.0,West,13.8,19.6,N/A,,Clear,280,2013-11-25 11:55:00
7:15 AM,17.6,-2.2,42,30.23,10.0,West,10.4,20.7,N/A,,Clear,280,2013-11-25 12:15:00
7:35 AM,19.4,-2.2,39,30.23,10.0,West,18.4,27.6,N/A,,Clear,270,2013-11-25 12:35:00
7:55 AM,19.4,-2.2,39,30.23,10.0,West,23.0,29.9,N/A,,Clear,270,2013-11-25 12:55:00
8:15 AM,19.4,-4.0,36,30.24,10.0,West,18.4,31.1,N/A,,Clear,280,2013-11-25 13:15:00
8:35 AM,19.4,-2.2,39,30.25,10.0,West,19.6,25.3,N/A,,Clear,280,2013-11-25 13:35:00
8:55 AM,19.4,-2.2,39,30.26,10.0,West,16.1,21.9,N/A,,Clear,270,2013-11-25 13:55:00
9:15 AM,21.2,-0.4,39,30.25,10.0,West,16.1,26.5,N/A,,Clear,270,2013-11-25 14:15:00
9:35 AM,21.2,-2.2,36,30.27,10.0,West,16.1,21.9,N/A,,Clear,270,2013-11-25 14:35:00
9:55 AM,23.0,-2.2,33,30.28,10.0,WNW,12.7,21.9,N/A,,Clear,290,2013-11-25 14:55:00
10:15 AM,24.8,-2.2,31,30.27,10.0,West,17.3,24.2,N/A,,Clear,270,2013-11-25 15:15:00
10:35 AM,24.8,-2.2,31,30.27,10.0,WNW,13.8,19.6,N/A,,Clear,290,2013-11-25 15:35:00
10:55 AM,24.8,-2.2,31,30.27,10.0,West,15.0,23.0,N/A,,Clear,280,2013-11-25 15:55:00
11:15 AM,24.8,-2.2,31,30.27,10.0,WNW,13.8,21.9,N/A,,Clear,290,2013-11-25 16:15:00
11:35 AM,26.6,-2.2,29,30.27,10.0,NW,10.4,17.3,N/A,,Clear,310,2013-11-25 16:35:00
11:55 AM,26.6,-2.2,29,30.27,10.0,West,15.0,20.7,N/A,,Clear,280,2013-11-25 16:55:00
12:15 PM,24.8,-4.0,28,30.27,10.0,West,11.5,-,N/A,,Clear,260,2013-11-25 17:15:00
12:35 PM,24.8,-4.0,28,30.26,10.0,WNW,12.7,24.2,N/A,,Clear,290,2013-11-25 17:35:00
12:55 PM,26.6,-2.2,29,30.26,10.0,West,17.3,24.2,N/A,,Clear,270,2013-11-25 17:55:00
1:15 PM,26.6,-5.8,24,30.26,10.0,WNW,13.8,25.3,N/A,,Clear,290,2013-11-25 18:15:00
1:35 PM,26.6,-5.8,24,30.26,10.0,WNW,16.1,25.3,N/A,,Clear,290,2013-11-25 18:35:00
1:55 PM,28.4,-5.8,23,30.25,10.0,NW,8.1,-,N/A,,Clear,310,2013-11-25 18:55:00
2:15 PM,28.4,-5.8,23,30.25,10.0,NW,9.2,19.6,N/A,,Clear,310,2013-11-25 19:15:00
2:35 PM,28.4,-5.8,23,30.26,10.0,WNW,10.4,-,N/A,,Clear,300,2013-11-25 19:35:00
2:55 PM,28.4,-5.8,23,30.27,10.0,West,8.1,-,N/A,,Clear,280,2013-11-25 19:55:00
3:15 PM,28.4,-4.0,25,30.28,10.0,West,11.5,-,N/A,,Clear,260,2013-11-25 20:15:00
3:35 PM,28.4,-2.2,27,30.27,10.0,West,9.2,-,N/A,,Clear,270,2013-11-25 20:35:00
3:55 PM,28.4,-4.0,25,30.27,10.0,West,8.1,-,N/A,,Clear,270,2013-11-25 20:55:00
4:15 PM,26.6,-2.2,29,30.28,10.0,WSW,6.9,-,N/A,,Clear,250,2013-11-25 21:15:00
4:35 PM,26.6,-2.2,29,30.28,10.0,WSW,8.1,-,N/A,,Clear,240,2013-11-25 21:35:00
4:55 PM,26.6,-4.0,26,30.28,10.0,SW,6.9,-,N/A,,Clear,230,2013-11-25 21:55:00
5:15 PM,24.8,-2.2,31,30.29,10.0,SW,4.6,-,N/A,,Clear,220,2013-11-25 22:15:00
5:35 PM,23.0,-4.0,31,30.29,10.0,SW,5.8,-,N/A,,Clear,230,2013-11-25 22:35:00
5:55 PM,21.2,-2.2,36,30.28,10.0,Calm,Calm,-,N/A,,Clear,0,2013-11-25 22:55:00
6:15 PM,19.4,-0.4,42,30.27,10.0,Calm,Calm,-,N/A,,Clear,0,2013-11-25 23:15:00
6:35 PM,17.6,1.4,49,30.29,10.0,Calm,Calm,-,N/A,,Clear,0,2013-11-25 23:35:00
6:55 PM,17.6,3.2,53,30.29,10.0,SSW,3.5,-,N/A,,Clear,200,2013-11-25 23:55:00
7:15 PM,17.6,1.4,49,30.28,10.0,South,3.5,-,N/A,,Clear,170,2013-11-26 00:15:00
7:35 PM,17.6,6.8,63,30.29,10.0,SSW,3.5,-,N/A,,Clear,200,2013-11-26 00:35:00
7:55 PM,17.6,3.2,53,30.27,10.0,South,3.5,-,N/A,,Clear,180,2013-11-26 00:55:00
8:15 PM,24.8,1.4,36,30.26,10.0,SSW,4.6,-,N/A,,Clear,200,2013-11-26 01:15:00
8:35 PM,24.8,-0.4,34,30.27,10.0,South,4.6,-,N/A,,Clear,190,2013-11-26 01:35:00
8:55 PM,24.8,1.4,36,30.26,10.0,South,4.6,-,N/A,,Partly Cloudy,190,2013-11-26 01:55:00
9:15 PM,24.8,1.4,36,30.26,10.0,South,4.6,-,N/A,,Mostly Cloudy,190,2013-11-26 02:15:00
9:35 PM,24.8,6.8,46,30.25,10.0,SSW,4.6,-,N/A,,Overcast,200,2013-11-26 02:35:00
9:55 PM,26.6,5.0,40,30.24,10.0,South,4.6,-,N/A,,Mostly Cloudy,190,2013-11-26 02:55:00
10:15 PM,26.6,6.8,43,30.24,10.0,Calm,Calm,-,N/A,,Mostly Cloudy,0,2013-11-26 03:15:00
10:35 PM,26.6,6.8,43,30.24,10.0,Calm,Calm,-,N/A,,Overcast,0,2013-11-26 03:35:00
10:55 PM,26.6,8.6,47,30.24,10.0,SW,4.6,-,N/A,,Overcast,220,2013-11-26 03:55:00
11:15 PM,26.6,8.6,47,30.25,10.0,SSW,5.8,-,N/A,,Overcast,210,2013-11-26 04:15:00
11:35 PM,26.6,8.6,47,30.23,10.0,South,4.6,-,N/A,,Mostly Cloudy,180,2013-11-26 04:35:00
11:55 PM,26.6,8.6,47,30.23,10.0,SSW,3.5,-,N/A,,Scattered Clouds,200,2013-11-26 04:55:00